Eduardo Fernandes

Scout - Sport Recife
9 Dez 2027
Donnerstag
Verarbeitung

Persönlichkeit

Anpassungsfähigkeit (5) Ehrgeiz (7) Kontroverse (10) Loyalität (15) Druck (1) Professionalität (9) Fairness (6) Temperament (12)

Profil

Trainerstil Demokratisch
Lizenz Nationale A
Entschlossenheit 6
Menschenführung 7
Motivation 9
Disziplin 8
Arbeitszufriedenheit
100%
Ermüdung
0%
Rolle Scout
Gehalt 30.3K p/W
Vertrag 14.03.2028

Leistung

Verhalten Gut
Trainingseffektivität
48%
Spielerentwicklung
40%
Verletzungsprävention
50%
Taktische Umsetzung
35%

Letzte Ereignisse

Nahm an einer Scouting-Besprechung teil jetzt
Nahm an einer Scouting-Besprechung teil jetzt
Legte dem Vorstand ein Dossier vor 7T her
Legte dem Vorstand ein Dossier vor 7T her
Legte dem Vorstand ein Dossier vor 7T her
Legte dem Vorstand ein Dossier vor 7T her
Legte dem Vorstand ein Dossier vor 7T her
Legte dem Vorstand ein Dossier vor 7T her

Aktuell beobachtet

123
Spieler Verein Status Fähigkeit Vertrauen Beobachtet Zuletzt beobachtet Letzte Stimme
Olaniyi Saheed Kwara United Aktiv 91 / 94 40% 2 10.11.2027 -
André Lucas Sampaio Correa Aktiv 98 / 91 40% 1 10.11.2027 -
Martim Ferreira Benfica Aktiv 111 / 111 40% 1 10.11.2027 -
Archie Gray Derby County Aktiv 158 / 150 40% 5 09.11.2027 -
Daniel Banjaqui Benfica Aktiv 123 / 128 40% 2 09.11.2027 -
Tobias Moi Bodo/Glimt Aktiv 97 / 104 40% 1 09.11.2027 -
Lucas Camejo River Plate Aktiv 81 / 94 40% 6 08.11.2027 -
Dmitry Pestryakov Dinamo Moscow Aktiv 119 / 136 40% 1 08.11.2027 -
Adrian Gill Atlanta United FC Aktiv 98 / 97 40% 1 08.11.2027 -
Bernardo Lima Porto Aktiv 100 / 116 40% 5 07.11.2027 -
Caleb Yirenkyi Coventry City Aktiv 142 / 141 40% 3 07.11.2027 -
Josh Nichols Tranmere Rovers Aktiv 126 / 124 40% 1 06.11.2027 -
Ayden Heaven Luton Town Aktiv 154 / 152 40% 2 03.11.2027 -
Juan Camilo Córdoba Deportivo Pereira Aktiv 89 / 95 40% 1 03.11.2027 -
Daniel Costa Sporting CP Aktiv 92 / 111 40% 1 03.11.2027 -
Figueiredo Sampaio Correa Aktiv 91 / 103 40% 3 02.11.2027 -
Mads Bomholt Stabaek Aktiv 109 / 112 40% 4 02.11.2027 -
Tiago Gordillo San Miguel Aktiv 87 / 91 40% 1 02.11.2027 -
Miguel Figueiredo Cesena Aktiv 117 / 135 40% 1 01.11.2027 -
Kauã Moraes Cruzeiro Aktiv 120 / 130 40% 1 31.10.2027 -
Ricky Atletico Venezuela Aktiv 99 / 103 40% 2 28.10.2027 -
Denilson Santos Sporting CP Aktiv 99 / 108 40% 2 27.10.2027 -
Tiago Freitas Benfica Aktiv 118 / 122 40% 4 26.10.2027 -
Eduardo Felicíssimo Sporting CP Aktiv 120 / 123 40% 5 26.10.2027 -
Giovanni Leoni Bradford City Aktiv 147 / 136 40% 1 26.10.2027 -
Mauro Carrizo Atlético Tucumán Aktiv 104 / 106 40% 3 23.10.2027 -
Mikkel Hope Haugesund Aktiv 96 / 103 40% 2 23.10.2027 -
Myles Lewis-Skelly Birmingham Aktiv 148 / 153 40% 2 23.10.2027 -
Christos Mouzakitis Hull City Aktiv 130 / 145 40% 2 21.10.2027 -
Julián Bazán Philadelphia Union Aktiv 116 / 114 40% 1 21.10.2027 -
Felipe Obradovich Ferro Carril Oeste Aktiv 110 / 117 40% 1 21.10.2027 -
João Teixeira Porto Aktiv 118 / 126 40% 3 19.10.2027 -
Bahia Criciuma Aktiv 119 / 126 40% 1 19.10.2027 -
Marvelous Freedom Ikorodu City Aktiv 98 / 93 40% 4 17.10.2027 -
Gonçalo Oliveira Benfica Aktiv 112 / 117 40% 6 14.10.2027 -
David Damboama El-Kanemi Warriors Aktiv 95 / 84 40% 2 14.10.2027 -
Josh King Chelsea Aktiv 150 / 155 40% 2 12.10.2027 -
Godwin Oham Warri Wolves Aktiv 86 / 83 40% 1 11.10.2027 -
Samuel Posada Leones Aktiv 82 / 89 40% 1 09.10.2027 -
Martim Cunha Porto Aktiv 108 / 120 40% 2 06.10.2027 -
Pablo Lúcio Bristol City Aktiv 106 / 113 40% 1 06.10.2027 -
Tyson Pearce St. Louis CITY SC Aktiv 96 / 103 40% 1 06.09.2027 -
Ignacio Fernández Boston River Aktiv 88 / 98 40% 1 06.09.2027 -
Lucas Wasilewsky Paysandu Aktiv 111 / 102 72% 1 12.07.2027 Befürworten
Loum Tchaouna Bolton Wanderers Verhandlung 134 / 138 67% 1 21.06.2027 -
Johan Manzambi Newcastle United Aktiv 138 / 141 40% 1 21.06.2027 -
Jofre Torrents Ajax Aktiv 122 / 132 40% 7 14.06.2027 -
João Capucho Benfica Aktiv 102 / 98 40% 3 14.06.2027 -
Daniel Kelly Oxford United Aktiv 113 / 126 40% 1 14.06.2027 -
Zane Albarus Cambridge United Aktiv 85 / 107 40% 2 01.06.2027 -
Yussif Saidu Zaragoza Aktiv 113 / 127 40% 3 01.06.2027 -
Konstantin Tyukavin Inter Verhandlung 132 / 133 66% 1 01.06.2027 Befürworten
Bitello SC Freiburg Verhandlung 135 / 135 68% 1 01.06.2027 Befürworten
Facundo Torres LOSC Lille Verhandlung 134 / 134 67% 1 01.06.2027 Befürworten
Yuri Alberto Köln Verhandlung 140 / 141 67% 1 01.06.2027 -
Franculino Crystal Palace Verhandlung 136 / 140 67% 1 01.06.2027 -
Leandro Martins Benfica Aktiv 105 / 105 40% 1 30.05.2027 -
Dylan Lawlor Cardiff City Aktiv 106 / 114 40% 7 29.05.2027 -
Riley Owen Trento Aktiv 92 / 111 40% 2 29.05.2027 -
Ernie Weaver AFC Wimbledon Aktiv 110 / 112 40% 4 27.05.2027 -
Matías Gómez Granada Aktiv 119 / 124 40% 2 26.05.2027 -
Simone Kosijer Triestina Aktiv 105 / 107 40% 1 25.05.2027 -
Davide Bartesaghi AC Milan Aktiv 125 / 143 40% 1 24.05.2027 -
Zaïd BafdilI Sporting CP Aktiv 99 / 109 40% 2 20.05.2027 -
Ibrahim Maza Bayer Leverkusen Aktiv 148 / 152 40% 1 16.05.2027 -
Darryl Bakola Padova Aktiv 106 / 118 40% 1 16.05.2027 -
Percy Jali Free State Stars Aktiv 98 / 100 40% 1 12.05.2027 -
Kazunari Kita Real Sociedad Aktiv 101 / 111 40% 3 10.05.2027 -
Jan Bürger Gillingham Aktiv 120 / 127 40% 4 05.05.2027 -
Daniel Vernattus Metalist Aktiv 95 / 89 40% 2 01.05.2027 -
Oumar Solet Udinese Aktiv 159 / 144 40% 1 01.05.2027 -
Mats Wieffer Brighton Aktiv 137 / 147 40% 1 01.05.2027 -
Tariq Lamptey Queens Park Rangers Aktiv 123 / 137 40% 1 01.05.2027 -
Ryan Sessegnon Fulham Aktiv 137 / 141 40% 1 29.04.2027 -
Nicolò Rovella Lazio Aktiv 153 / 149 40% 1 29.04.2027 -
André Wolverhampton Aktiv 139 / 147 40% 2 28.04.2027 -
Adam Wharton Crystal Palace Aktiv 150 / 158 40% 2 28.04.2027 -
Tiago Djaló Besiktas Aktiv 146 / 130 40% 1 28.04.2027 -
Alessandro Buongiorno Sassuolo Aktiv 151 / 152 40% 2 26.04.2027 -
Nathan Collins Brentford Aktiv 139 / 150 40% 2 26.04.2027 -
James Garner Everton Aktiv 154 / 155 40% 1 26.04.2027 -
Soungoutou Magassa West Ham United Aktiv 136 / 134 40% 3 25.04.2027 -
Ousmane Diomande Nottingham Forest Aktiv 150 / 159 40% 1 25.04.2027 -
Milan van Ewijk Mansfield Town Aktiv 143 / 123 40% 2 22.04.2027 -
Óscar Mingueza Crystal Palace Aktiv 156 / 145 40% 2 22.04.2027 -
Lewis Ferguson Bologna Aktiv 144 / 134 40% 3 20.04.2027 -
Jake O'Brien Everton Aktiv 157 / 155 40% 1 20.04.2027 -
Florentino Luís Ipswich Town Aktiv 147 / 145 40% 3 19.04.2027 -
Edoardo Bove Watford Aktiv 129 / 133 40% 1 19.04.2027 -
José Pachuca Puebla Aktiv 102 / 111 40% 2 18.04.2027 -
Vasco Santos Oliveirense Aktiv 87 / 91 40% 1 18.04.2027 -
Kevin Vazquez Cruz Azul Aktiv 141 / 138 40% 2 17.04.2027 -
Bright Arrey-Mbi Braga Aktiv 135 / 139 40% 4 17.04.2027 -
Adrien Truffert Bournemouth Aktiv 146 / 150 40% 1 17.04.2027 -
Francisco Moura Lusitânia Lourosa Aktiv 143 / 132 40% 2 15.04.2027 -
Ethan Galbraith Swansea City Aktiv 125 / 128 40% 4 14.04.2027 -
Víctor Gómez Braga Aktiv 150 / 140 40% 1 13.04.2027 -
Harry Clarke Preston Aktiv 120 / 136 40% 3 12.04.2027 -
Habib Diarra Sunderland Aktiv 152 / 140 40% 1 12.04.2027 -
Jesús Orozco Chiquete Cruz Azul Aktiv 126 / 129 40% 1 10.04.2027 -
Sikou Niakaté Braga Aktiv 149 / 140 40% 4 09.04.2027 -
Callum Doyle Wrexham Aktiv 122 / 131 40% 1 09.04.2027 -
David Ozoh Derby County Aktiv 118 / 126 40% 1 09.04.2027 -
Ilay Camara Anderlecht Aktiv 123 / 133 40% 1 07.04.2027 -
Josh Doig Sassuolo Aktiv 132 / 138 40% 1 05.04.2027 -
Rodrigo Pinheiro Famalicao Aktiv 122 / 137 40% 1 04.04.2027 -
João Simões Sporting CP Aktiv 135 / 146 40% 1 04.04.2027 -
Ronnie Edwards Queens Park Rangers Aktiv 126 / 137 40% 1 02.04.2027 -
Joel McGregor Swindon Town Aktiv 87 / 101 40% 2 01.04.2027 -
Jacques Ekomié Wrexham Aktiv 138 / 131 40% 2 01.04.2027 -
Khalis Merah Toulouse FC Aktiv 114 / 137 40% 1 01.04.2027 -
Leif Davis Ipswich Town Aktiv 130 / 136 40% 1 01.04.2027 -
Sidny Lopes Cabral Trabzonspor Aktiv 141 / 124 40% 1 31.03.2027 -
Nicolás Fernández Mercau Shakhtar Aktiv 145 / 128 40% 1 29.03.2027 Mehr Infos nötig
Jordan Holsgrove Estoril Praia Aktiv 132 / 129 40% 1 29.03.2027 -
Max Bird Birmingham Aktiv 122 / 133 40% 1 25.03.2027 -
Imrân Louza Watford Aktiv 143 / 133 40% 1 24.03.2027 -
James Dornelly Peterborough United Aktiv 94 / 99 40% 1 24.03.2027 -
Noah Sadiki Sunderland Aktiv 133 / 149 40% 1 22.03.2027 -
Shea Charles Southampton Aktiv 140 / 132 40% 1 20.03.2027 -
Matvey Kislyak CSKA Moscow Aktiv 139 / 144 40% 1 20.03.2027 -
Rayhan Momade Sporting CP Aktiv 91 / 95 40% 1 20.03.2027 -
Oliver Skipp Leicester City Aktiv 138 / 140 40% 1 17.03.2027 -